sensor_id;sensor_type;location;lat;lon;timestamp;P1;durP1;ratioP1;P2;durP2;ratioP2
12072;SDS011;6098;49.004;8.372;2024-03-22T00:09:56;8.99;;;5.32;;
12072;SDS011;6098;49.004;8.372;2024-03-22T00:24:47;9.06;;;5.96;;
12072;SDS011;6098;49.004;8.372;2024-03-22T00:39:37;10.56;;;5.99;;
12072;SDS011;6098;49.004;8.372;2024-03-22T00:54:28;7.21;;;5.16;;
12072;SDS011;6098;49.004;8.372;2024-03-22T01:09:20;7.86;;;4.97;;
12072;SDS011;6098;49.004;8.372;2024-03-22T01:24:11;10.77;;;6.87;;
12072;SDS011;6098;49.004;8.372;2024-03-22T01:39:02;9.14;;;5.32;;
12072;SDS011;6098;49.004;8.372;2024-03-22T01:53:54;8.68;;;5.96;;
12072;SDS011;6098;49.004;8.372;2024-03-22T02:08:45;9.43;;;5.64;;
12072;SDS011;6098;49.004;8.372;2024-03-22T02:23:38;7.87;;;5.28;;
12072;SDS011;6098;49.004;8.372;2024-03-22T02:38:29;9.24;;;4.88;;
12072;SDS011;6098;49.004;8.372;2024-03-22T02:53:21;7.98;;;5.49;;
12072;SDS011;6098;49.004;8.372;2024-03-22T03:08:12;8.63;;;5.54;;
12072;SDS011;6098;49.004;8.372;2024-03-22T03:23:03;8.19;;;5.03;;
12072;SDS011;6098;49.004;8.372;2024-03-22T03:37:56;8.96;;;5.32;;
12072;SDS011;6098;49.004;8.372;2024-03-22T03:52:49;7.42;;;4.79;;
12072;SDS011;6098;49.004;8.372;2024-03-22T04:07:41;6.78;;;4.51;;
12072;SDS011;6098;49.004;8.372;2024-03-22T04:22:33;6.61;;;4.60;;
12072;SDS011;6098;49.004;8.372;2024-03-22T04:37:27;6.62;;;4.51;;
12072;SDS011;6098;49.004;8.372;2024-03-22T04:52:20;6.97;;;4.41;;
12072;SDS011;6098;49.004;8.372;2024-03-22T05:07:11;6.51;;;4.26;;
12072;SDS011;6098;49.004;8.372;2024-03-22T05:22:03;6.77;;;4.46;;
12072;SDS011;6098;49.004;8.372;2024-03-22T05:36:55;6.44;;;4.54;;
12072;SDS011;6098;49.004;8.372;2024-03-22T05:51:46;8.53;;;4.52;;
12072;SDS011;6098;49.004;8.372;2024-03-22T06:06:39;7.04;;;4.51;;
12072;SDS011;6098;49.004;8.372;2024-03-22T06:21:32;5.83;;;3.86;;
12072;SDS011;6098;49.004;8.372;2024-03-22T06:36:24;6.93;;;4.52;;
12072;SDS011;6098;49.004;8.372;2024-03-22T06:51:15;5.73;;;4.33;;
12072;SDS011;6098;49.004;8.372;2024-03-22T07:06:07;9.79;;;5.56;;
12072;SDS011;6098;49.004;8.372;2024-03-22T07:20:58;5.30;;;3.83;;
12072;SDS011;6098;49.004;8.372;2024-03-22T07:35:51;7.88;;;4.49;;
12072;SDS011;6098;49.004;8.372;2024-03-22T07:50:44;5.40;;;3.54;;
12072;SDS011;6098;49.004;8.372;2024-03-22T08:05:37;8.11;;;4.44;;
12072;SDS011;6098;49.004;8.372;2024-03-22T08:20:30;5.17;;;4.04;;
12072;SDS011;6098;49.004;8.372;2024-03-22T08:35:25;7.23;;;4.72;;
12072;SDS011;6098;49.004;8.372;2024-03-22T08:50:18;7.42;;;4.92;;
12072;SDS011;6098;49.004;8.372;2024-03-22T09:05:11;6.22;;;4.65;;
12072;SDS011;6098;49.004;8.372;2024-03-22T09:20:04;6.89;;;4.15;;
12072;SDS011;6098;49.004;8.372;2024-03-22T09:34:58;4.93;;;3.61;;
12072;SDS011;6098;49.004;8.372;2024-03-22T09:49:49;5.65;;;4.30;;
12072;SDS011;6098;49.004;8.372;2024-03-22T10:20:00;6.51;;;4.46;;
12072;SDS011;6098;49.004;8.372;2024-03-22T10:34:52;7.37;;;4.96;;
12072;SDS011;6098;49.004;8.372;2024-03-22T10:49:45;7.28;;;4.39;;
12072;SDS011;6098;49.004;8.372;2024-03-22T11:04:37;6.26;;;4.26;;
12072;SDS011;6098;49.004;8.372;2024-03-22T11:19:29;4.85;;;3.89;;
12072;SDS011;6098;49.004;8.372;2024-03-22T11:34:21;4.80;;;3.90;;
12072;SDS011;6098;49.004;8.372;2024-03-22T11:49:14;5.70;;;3.31;;
12072;SDS011;6098;49.004;8.372;2024-03-22T12:04:09;3.83;;;3.30;;
12072;SDS011;6098;49.004;8.372;2024-03-22T12:19:02;3.87;;;3.19;;
12072;SDS011;6098;49.004;8.372;2024-03-22T12:33:54;6.37;;;2.85;;
12072;SDS011;6098;49.004;8.372;2024-03-22T12:48:46;3.72;;;2.21;;
12072;SDS011;6098;49.004;8.372;2024-03-22T13:03:38;3.03;;;1.80;;
12072;SDS011;6098;49.004;8.372;2024-03-22T13:18:30;2.15;;;1.59;;
12072;SDS011;6098;49.004;8.372;2024-03-22T13:33:23;2.41;;;2.08;;
12072;SDS011;6098;49.004;8.372;2024-03-22T13:48:14;4.36;;;2.35;;
12072;SDS011;6098;49.004;8.372;2024-03-22T14:03:07;3.87;;;2.05;;
12072;SDS011;6098;49.004;8.372;2024-03-22T14:17:59;3.50;;;2.20;;
12072;SDS011;6098;49.004;8.372;2024-03-22T14:32:52;2.84;;;2.34;;
12072;SDS011;6098;49.004;8.372;2024-03-22T14:47:46;4.90;;;3.15;;
12072;SDS011;6098;49.004;8.372;2024-03-22T15:02:38;4.00;;;2.35;;
12072;SDS011;6098;49.004;8.372;2024-03-22T15:17:31;2.31;;;2.10;;
12072;SDS011;6098;49.004;8.372;2024-03-22T15:32:24;2.74;;;2.40;;
12072;SDS011;6098;49.004;8.372;2024-03-22T15:47:17;3.12;;;2.72;;
12072;SDS011;6098;49.004;8.372;2024-03-22T16:02:09;4.82;;;3.28;;
12072;SDS011;6098;49.004;8.372;2024-03-22T16:17:00;4.12;;;2.90;;
12072;SDS011;6098;49.004;8.372;2024-03-22T16:31:52;3.89;;;2.67;;
12072;SDS011;6098;49.004;8.372;2024-03-22T16:46:43;6.00;;;2.70;;
12072;SDS011;6098;49.004;8.372;2024-03-22T17:01:35;4.04;;;2.56;;
12072;SDS011;6098;49.004;8.372;2024-03-22T17:16:43;4.34;;;2.20;;
12072;SDS011;6098;49.004;8.372;2024-03-22T17:31:35;3.60;;;2.14;;
12072;SDS011;6098;49.004;8.372;2024-03-22T17:46:26;2.89;;;2.11;;
12072;SDS011;6098;49.004;8.372;2024-03-22T18:01:17;3.55;;;2.10;;
12072;SDS011;6098;49.004;8.372;2024-03-22T18:16:08;2.39;;;2.13;;
12072;SDS011;6098;49.004;8.372;2024-03-22T18:30:59;3.03;;;2.30;;
12072;SDS011;6098;49.004;8.372;2024-03-22T18:45:51;3.74;;;2.66;;
12072;SDS011;6098;49.004;8.372;2024-03-22T19:00:41;4.47;;;2.68;;
12072;SDS011;6098;49.004;8.372;2024-03-22T19:15:32;3.88;;;3.20;;
12072;SDS011;6098;49.004;8.372;2024-03-22T19:30:25;6.16;;;4.23;;
12072;SDS011;6098;49.004;8.372;2024-03-22T19:45:17;7.34;;;4.41;;
12072;SDS011;6098;49.004;8.372;2024-03-22T20:00:08;8.29;;;4.44;;
12072;SDS011;6098;49.004;8.372;2024-03-22T20:15:01;9.43;;;5.57;;
12072;SDS011;6098;49.004;8.372;2024-03-22T20:29:53;8.71;;;6.41;;
